Time;durP1;ratioP1;P1;durP2;ratioP2;P2;SDS_P1;SDS_P2;PMS_P1;PMS_P2;Temp;Humidity;BMP_temperature;BMP_pressure;BME280_temperature;BME280_humidity;BME280_pressure;Samples;Min_cycle;Max_cycle;Signal;HPM_P1;HPM_P2
2022/11/13 00:02:42;;;;;;;207.90;9.52;;;;;;;;;;8359284;28;21006;-64
2022/11/13 00:06:42;;;;;;;226.80;10.43;;;;;;;;;;8360481;28;20119;-63
2022/11/13 00:10:42;;;;;;;119.37;7.90;;;;;;;;;;8360655;28;20420;-63
2022/11/13 00:14:42;;;;;;;416.90;15.60;;;;;;;;;;8338665;28;20636;-63
2022/11/13 00:18:43;;;;;;;175.35;11.50;;;;;;;;;;8360388;28;20029;-64
2022/11/13 00:22:43;;;;;;;162.25;10.88;;;;;;;;;;8359372;28;21495;-63
2022/11/13 00:26:43;;;;;;;303.80;13.68;;;;;;;;;;8341305;28;20034;-62
2022/11/13 00:30:44;;;;;;;287.17;12.15;;;;;;;;;;8355486;28;20284;-63
2022/11/13 00:34:44;;;;;;;176.50;9.63;;;;;;;;;;8353768;28;20059;-63
2022/11/13 00:38:44;;;;;;;201.45;10.57;;;;;;;;;;8353056;28;20017;-63
2022/11/13 00:42:44;;;;;;;105.40;8.98;;;;;;;;;;8356760;28;20880;-63
2022/11/13 00:46:45;;;;;;;216.18;11.00;;;;;;;;;;8357254;28;20029;-63
2022/11/13 00:50:45;;;;;;;114.70;8.93;;;;;;;;;;8358616;28;20135;-63
2022/11/13 00:54:45;;;;;;;143.90;9.57;;;;;;;;;;8357635;28;20020;-62
2022/11/13 00:58:46;;;;;;;384.92;17.27;;;;;;;;;;8355998;28;20017;-63
2022/11/13 01:02:46;;;;;;;96.85;9.35;;;;;;;;;;8359039;28;20086;-63
2022/11/13 01:06:46;;;;;;;88.75;9.10;;;;;;;;;;8354547;28;20020;-62
2022/11/13 01:10:47;;;;;;;204.20;11.10;;;;;;;;;;8359872;28;20026;-63
2022/11/13 01:14:48;;;;;;;96.43;9.00;;;;;;;;;;8359331;28;20016;-63
2022/11/13 01:18:52;;;;;;;78.97;8.10;;;;;;;;;;8352981;28;20987;-62
2022/11/13 01:22:52;;;;;;;118.55;8.25;;;;;;;;;;8353240;28;20051;-63
2022/11/13 01:26:52;;;;;;;57.58;8.02;;;;;;;;;;8353706;28;20016;-63
2022/11/13 01:30:52;;;;;;;74.00;7.88;;;;;;;;;;8335625;28;20071;-63
2022/11/13 01:34:53;;;;;;;89.22;9.40;;;;;;;;;;8358018;28;20016;-63
2022/11/13 01:38:53;;;;;;;81.57;8.10;;;;;;;;;;8358548;28;21044;-63
2022/11/13 01:42:53;;;;;;;163.50;9.80;;;;;;;;;;8356270;28;20306;-63
2022/11/13 01:46:55;;;;;;;127.88;8.45;;;;;;;;;;8355851;28;20128;-64
2022/11/13 01:50:55;;;;;;;38.85;7.97;;;;;;;;;;8352996;28;20017;-63
2022/11/13 01:55:01;;;;;;;145.63;9.48;;;;;;;;;;8356614;28;20052;-63
2022/11/13 01:59:12;;;;;;;222.55;10.65;;;;;;;;;;8353237;28;20036;-63
2022/11/13 02:03:13;;;;;;;62.20;6.82;;;;;;;;;;8352900;28;20087;-63
2022/11/13 02:07:14;;;;;;;107.83;7.77;;;;;;;;;;8354623;28;20074;-63
2022/11/13 02:11:15;;;;;;;97.03;7.28;;;;;;;;;;8354288;28;20840;-63
2022/11/13 02:15:15;;;;;;;154.63;8.38;;;;;;;;;;8351391;28;20031;-63
2022/11/13 02:19:19;;;;;;;160.52;8.77;;;;;;;;;;8352441;28;20584;-63
2022/11/13 02:23:34;;;;;;;67.32;6.30;;;;;;;;;;8352567;28;20802;-64
2022/11/13 02:27:47;;;;;;;54.20;6.22;;;;;;;;;;8354142;28;20098;-63
2022/11/13 02:31:48;;;;;;;110.95;7.18;;;;;;;;;;8353241;28;20155;-63
2022/11/13 02:35:48;;;;;;;224.50;9.77;;;;;;;;;;8354135;28;20059;-63
2022/11/13 02:39:49;;;;;;;256.48;10.73;;;;;;;;;;8354816;28;20527;-64
2022/11/13 02:43:49;;;;;;;174.25;8.90;;;;;;;;;;8353723;28;20139;-63
2022/11/13 02:47:49;;;;;;;89.95;7.10;;;;;;;;;;8350758;28;20477;-63
2022/11/13 02:51:49;;;;;;;145.70;9.50;;;;;;;;;;8354372;28;20059;-63
2022/11/13 02:55:50;;;;;;;193.55;10.05;;;;;;;;;;8352972;28;20753;-63
2022/11/13 02:59:50;;;;;;;200.27;9.55;;;;;;;;;;8335651;28;20111;-63
2022/11/13 03:03:50;;;;;;;193.82;8.95;;;;;;;;;;8353895;28;20040;-63
2022/11/13 03:07:50;;;;;;;164.88;9.18;;;;;;;;;;8355637;28;20763;-63
2022/11/13 03:11:50;;;;;;;101.85;7.55;;;;;;;;;;8361065;28;20140;-63
2022/11/13 03:15:51;;;;;;;363.08;13.43;;;;;;;;;;8364081;28;20036;-63
2022/11/13 03:19:51;;;;;;;121.78;7.80;;;;;;;;;;8356732;28;20565;-64
2022/11/13 03:23:52;;;;;;;113.93;7.65;;;;;;;;;;8360936;28;20085;-63
2022/11/13 03:27:52;;;;;;;174.50;8.32;;;;;;;;;;8360629;28;20393;-63
2022/11/13 03:36:30;;;;;;;203.77;9.63;;;;;;;;;;8367603;28;20028;-63
2022/11/13 03:40:30;;;;;;;241.07;10.20;;;;;;;;;;8362054;28;20032;-63
2022/11/13 03:44:30;;;;;;;124.18;6.95;;;;;;;;;;8358877;28;20029;-63
2022/11/13 03:48:31;;;;;;;54.33;5.93;;;;;;;;;;8359840;28;20082;-63
2022/11/13 03:52:31;;;;;;;138.20;7.27;;;;;;;;;;8359448;28;21002;-64
2022/11/13 03:56:31;;;;;;;229.15;9.00;;;;;;;;;;8356679;28;20945;-65
2022/11/13 04:00:31;;;;;;;46.78;5.20;;;;;;;;;;8357544;28;20340;-63
2022/11/13 04:04:31;;;;;;;28.63;4.60;;;;;;;;;;8358854;28;20742;-63
2022/11/13 04:08:32;;;;;;;112.00;6.53;;;;;;;;;;8362004;28;20012;-63
2022/11/13 04:12:32;;;;;;;44.00;5.07;;;;;;;;;;8358359;28;20390;-63
2022/11/13 04:16:32;;;;;;;83.50;5.80;;;;;;;;;;8355981;28;20032;-64
2022/11/13 04:20:32;;;;;;;123.55;8.02;;;;;;;;;;8357729;28;20028;-63
2022/11/13 04:24:33;;;;;;;197.40;9.70;;;;;;;;;;8356895;28;20716;-63
2022/11/13 04:28:33;;;;;;;42.85;5.93;;;;;;;;;;8359176;28;20283;-63
2022/11/13 04:32:33;;;;;;;78.13;5.90;;;;;;;;;;8357813;28;20028;-63
2022/11/13 04:36:33;;;;;;;45.27;5.57;;;;;;;;;;8343806;28;20887;-63
2022/11/13 04:40:33;;;;;;;38.03;5.88;;;;;;;;;;8359666;28;21027;-63
2022/11/13 04:44:33;;;;;;;21.98;5.45;;;;;;;;;;8356035;28;20107;-63
2022/11/13 04:48:34;;;;;;;70.32;7.03;;;;;;;;;;8356698;28;20024;-64
2022/11/13 04:52:34;;;;;;;28.95;6.15;;;;;;;;;;8357079;28;20028;-63
2022/11/13 04:56:34;;;;;;;27.25;6.10;;;;;;;;;;8356523;28;20028;-63
2022/11/13 05:00:34;;;;;;;56.70;7.22;;;;;;;;;;8357802;28;20029;-62
2022/11/13 05:04:35;;;;;;;14.23;5.93;;;;;;;;;;8357847;28;21091;-62
2022/11/13 05:08:35;;;;;;;183.40;9.98;;;;;;;;;;8356322;28;20035;-63
2022/11/13 05:12:35;;;;;;;76.20;7.65;;;;;;;;;;8359236;28;20028;-63
2022/11/13 05:16:35;;;;;;;10.68;7.05;;;;;;;;;;8354562;28;20043;-63
2022/11/13 05:20:35;;;;;;;46.63;7.97;;;;;;;;;;8355148;28;20024;-63
2022/11/13 05:24:36;;;;;;;64.28;8.95;;;;;;;;;;8358276;28;20048;-63
2022/11/13 05:28:36;;;;;;;21.90;7.57;;;;;;;;;;8357384;28;20030;-63
2022/11/13 05:32:37;;;;;;;81.63;8.73;;;;;;;;;;8357378;28;20150;-64
2022/11/13 05:36:37;;;;;;;71.30;8.45;;;;;;;;;;8360327;28;20397;-63
2022/11/13 05:40:37;;;;;;;10.88;7.10;;;;;;;;;;8359064;28;20198;-63
2022/11/13 05:44:37;;;;;;;56.70;8.18;;;;;;;;;;8357525;28;20024;-63
2022/11/13 05:48:38;;;;;;;42.60;7.85;;;;;;;;;;8358182;28;20060;-63
2022/11/13 05:52:38;;;;;;;15.13;8.20;;;;;;;;;;8359038;28;20052;-63
2022/11/13 05:56:39;;;;;;;53.10;8.52;;;;;;;;;;8338007;28;20098;-63
2022/11/13 06:00:39;;;;;;;23.75;8.57;;;;;;;;;;8357971;28;20032;-63
2022/11/13 06:04:39;;;;;;;18.88;8.75;;;;;;;;;;8336945;28;21057;-63
2022/11/13 06:08:40;;;;;;;10.35;8.32;;;;;;;;;;8355734;28;20466;-63
2022/11/13 06:12:40;;;;;;;10.70;8.43;;;;;;;;;;8336872;28;20128;-63
2022/11/13 06:16:40;;;;;;;9.50;7.95;;;;;;;;;;8356013;28;20040;-63
2022/11/13 06:20:40;;;;;;;9.33;7.10;;;;;;;;;;8358878;28;20922;-63
2022/11/13 06:24:41;;;;;;;8.90;6.72;;;;;;;;;;8358254;28;20728;-63
2022/11/13 06:28:41;;;;;;;9.23;6.43;;;;;;;;;;8357864;28;20026;-63
2022/11/13 06:32:41;;;;;;;7.97;6.63;;;;;;;;;;8355095;28;20220;-63
2022/11/13 06:36:42;;;;;;;7.38;6.07;;;;;;;;;;8353646;28;20027;-63
2022/11/13 06:40:42;;;;;;;7.73;6.40;;;;;;;;;;8354562;28;20032;-63
2022/11/13 06:44:42;;;;;;;7.63;6.60;;;;;;;;;;8360728;28;20286;-63
2022/11/13 06:48:42;;;;;;;9.98;5.65;;;;;;;;;;8367903;28;20148;-63
2022/11/13 06:52:43;;;;;;;7.05;5.63;;;;;;;;;;8365935;28;20068;-62
2022/11/13 06:56:44;;;;;;;6.47;4.83;;;;;;;;;;8367987;28;20029;-64
2022/11/13 07:00:44;;;;;;;6.70;5.13;;;;;;;;;;8365521;28;20279;-64
2022/11/13 07:04:44;;;;;;;5.75;4.88;;;;;;;;;;8369050;28;20029;-63
2022/11/13 07:08:45;;;;;;;5.68;5.10;;;;;;;;;;8368627;28;20637;-63
2022/11/13 07:12:45;;;;;;;5.28;4.65;;;;;;;;;;8364685;28;20086;-63
2022/11/13 07:16:46;;;;;;;6.65;5.20;;;;;;;;;;8364022;28;20064;-63
2022/11/13 07:20:46;;;;;;;5.03;4.53;;;;;;;;;;8365401;28;20035;-63
2022/11/13 07:24:46;;;;;;;6.38;4.57;;;;;;;;;;8367947;28;20032;-63
2022/11/13 07:28:47;;;;;;;5.95;4.80;;;;;;;;;;8366482;28;20036;-63
2022/11/13 07:32:47;;;;;;;6.35;4.90;;;;;;;;;;8364740;28;20047;-64
2022/11/13 07:36:47;;;;;;;6.00;4.85;;;;;;;;;;8365830;28;20024;-63
2022/11/13 07:40:48;;;;;;;5.72;4.50;;;;;;;;;;8368342;28;20025;-63
2022/11/13 07:44:48;;;;;;;4.45;3.88;;;;;;;;;;8364838;28;20032;-63
2022/11/13 07:48:48;;;;;;;4.95;4.38;;;;;;;;;;8363232;28;20032;-62
2022/11/13 07:52:53;;;;;;;5.35;4.15;;;;;;;;;;8367648;28;20058;-63
2022/11/13 07:56:53;;;;;;;5.30;4.80;;;;;;;;;;8359500;28;20029;-62
2022/11/13 08:00:53;;;;;;;6.30;4.63;;;;;;;;;;8358672;28;20481;-63
2022/11/13 08:04:53;;;;;;;5.80;4.53;;;;;;;;;;8353902;28;20024;-62
2022/11/13 08:08:54;;;;;;;6.05;4.75;;;;;;;;;;8354747;28;20050;-63
2022/11/13 08:12:58;;;;;;;4.57;4.13;;;;;;;;;;8354337;28;20028;-63
2022/11/13 08:16:59;;;;;;;4.97;4.18;;;;;;;;;;8350450;28;20286;-62
2022/11/13 08:21:00;;;;;;;4.65;4.03;;;;;;;;;;8352426;28;20489;-63
2022/11/13 08:25:00;;;;;;;7.18;4.57;;;;;;;;;;8354178;28;20024;-64
2022/11/13 08:29:00;;;;;;;5.07;4.60;;;;;;;;;;8352458;28;20114;-63
2022/11/13 08:33:01;;;;;;;4.88;4.30;;;;;;;;;;8336743;28;20036;-63
2022/11/13 08:37:01;;;;;;;5.32;4.35;;;;;;;;;;8352847;28;20577;-63
2022/11/13 08:41:02;;;;;;;5.25;4.43;;;;;;;;;;8333668;28;20646;-63
2022/11/13 08:45:03;;;;;;;5.43;4.90;;;;;;;;;;8352973;28;20784;-63
2022/11/13 08:49:03;;;;;;;6.35;4.68;;;;;;;;;;8355956;28;20028;-63
2022/11/13 08:53:03;;;;;;;5.00;4.50;;;;;;;;;;8338124;28;20035;-64
2022/11/13 08:57:04;;;;;;;5.15;4.63;;;;;;;;;;8355102;28;20029;-63
2022/11/13 09:01:04;;;;;;;5.65;4.50;;;;;;;;;;8355251;28;20122;-64
2022/11/13 09:05:05;;;;;;;5.85;4.85;;;;;;;;;;8354995;28;20954;-64
2022/11/13 09:09:07;;;;;;;5.93;4.82;;;;;;;;;;8357416;28;20119;-63
2022/11/13 09:13:08;;;;;;;6.70;4.57;;;;;;;;;;8354677;28;20027;-63
2022/11/13 09:17:08;;;;;;;7.60;5.13;;;;;;;;;;8356760;28;20128;-63
2022/11/13 09:21:09;;;;;;;5.95;4.70;;;;;;;;;;8354215;28;20414;-64
2022/11/13 09:25:10;;;;;;;5.07;4.28;;;;;;;;;;8354561;28;20024;-63
2022/11/13 09:29:10;;;;;;;6.57;5.07;;;;;;;;;;8326769;28;20367;-63
2022/11/13 09:33:14;;;;;;;6.03;4.78;;;;;;;;;;8351906;28;20042;-63
2022/11/13 09:37:14;;;;;;;6.53;4.53;;;;;;;;;;8353246;28;20039;-63
2022/11/13 09:41:38;;;;;;;5.82;4.15;;;;;;;;;;8354293;28;20998;-63
2022/11/13 09:45:39;;;;;;;5.80;4.35;;;;;;;;;;8347421;28;20028;-63
2022/11/13 09:49:44;;;;;;;4.80;4.00;;;;;;;;;;8356695;28;20115;-63
2022/11/13 09:53:44;;;;;;;5.47;4.57;;;;;;;;;;8355764;28;20088;-63
2022/11/13 09:57:49;;;;;;;5.75;4.18;;;;;;;;;;8352862;28;20100;-63
2022/11/13 10:01:53;;;;;;;4.97;4.28;;;;;;;;;;8354704;28;20591;-63
2022/11/13 10:05:56;;;;;;;4.70;4.30;;;;;;;;;;8354258;28;20046;-63
2022/11/13 10:10:06;;;;;;;4.45;3.90;;;;;;;;;;8348768;28;20110;-63
2022/11/13 10:14:10;;;;;;;7.40;5.93;;;;;;;;;;8344796;28;20481;-64
2022/11/13 10:18:14;;;;;;;5.22;4.57;;;;;;;;;;8345489;28;20119;-64
2022/11/13 10:22:17;;;;;;;4.47;4.03;;;;;;;;;;8345373;28;20532;-64
2022/11/13 10:26:19;;;;;;;5.32;4.40;;;;;;;;;;8347424;28;20391;-64
2022/11/13 10:30:19;;;;;;;4.20;3.80;;;;;;;;;;8346672;28;20624;-64
2022/11/13 10:34:19;;;;;;;5.90;4.07;;;;;;;;;;8346226;28;20574;-64
2022/11/13 10:38:20;;;;;;;4.47;4.03;;;;;;;;;;8346319;28;20032;-64
2022/11/13 10:42:22;;;;;;;5.95;4.30;;;;;;;;;;8326287;28;20077;-65
2022/11/13 10:46:28;;;;;;;4.50;4.00;;;;;;;;;;8346482;28;20089;-64
2022/11/13 10:50:29;;;;;;;4.70;3.90;;;;;;;;;;8325055;28;20048;-63
2022/11/13 10:54:31;;;;;;;4.55;3.80;;;;;;;;;;8346229;28;20028;-63
2022/11/13 10:58:31;;;;;;;5.32;4.30;;;;;;;;;;8347342;28;20029;-64
2022/11/13 11:02:31;;;;;;;4.40;3.90;;;;;;;;;;8343799;28;20037;-63
2022/11/13 11:06:37;;;;;;;6.35;4.40;;;;;;;;;;8339884;28;20035;-64
2022/11/13 11:12:14;;;;;;;6.05;4.38;;;;;;;;;;8347813;28;20020;-62
2022/11/13 11:14:58;;;;;;;7.15;3.85;;;;;;;;;;8341351;28;20031;-62
2022/11/13 11:19:03;;;;;;;4.95;4.20;;;;;;;;;;8342919;28;20597;-63
2022/11/13 11:23:15;;;;;;;4.00;3.60;;;;;;;;;;8341951;28;20681;-63
2022/11/13 11:27:21;;;;;;;5.60;3.78;;;;;;;;;;8343320;28;20389;-62
2022/11/13 11:31:29;;;;;;;4.32;3.65;;;;;;;;;;8353550;28;20072;-63
2022/11/13 11:35:44;;;;;;;4.45;3.25;;;;;;;;;;8361839;28;20035;-62
2022/11/13 11:40:06;;;;;;;4.00;3.60;;;;;;;;;;8360411;28;20104;-62
2022/11/13 11:44:15;;;;;;;4.93;4.03;;;;;;;;;;8362427;28;20032;-62
2022/11/13 11:48:24;;;;;;;7.03;4.72;;;;;;;;;;8359372;28;20115;-61
2022/11/13 11:52:25;;;;;;;6.25;4.70;;;;;;;;;;8356342;28;20207;-61
2022/11/13 11:56:33;;;;;;;5.70;4.50;;;;;;;;;;8332611;28;20306;-62
2022/11/13 12:00:36;;;;;;;5.22;4.68;;;;;;;;;;8351093;28;20060;-62
2022/11/13 12:04:49;;;;;;;5.50;4.57;;;;;;;;;;8349357;28;20492;-62
2022/11/13 12:08:52;;;;;;;5.35;4.63;;;;;;;;;;8333759;28;20024;-62
2022/11/13 12:13:01;;;;;;;4.47;4.00;;;;;;;;;;8360436;28;20032;-62
2022/11/13 12:17:11;;;;;;;4.50;3.80;;;;;;;;;;8347368;28;20522;-62
2022/11/13 12:21:22;;;;;;;4.93;4.22;;;;;;;;;;8349690;28;20024;-62
2022/11/13 12:25:43;;;;;;;4.32;3.72;;;;;;;;;;8353763;28;20060;-62
2022/11/13 12:29:58;;;;;;;4.97;3.90;;;;;;;;;;8346044;28;20016;-60
2022/11/13 12:34:09;;;;;;;5.80;3.88;;;;;;;;;;8348151;28;20338;-61
2022/11/13 12:38:15;;;;;;;4.63;3.83;;;;;;;;;;8344427;28;20126;-62
2022/11/13 12:42:19;;;;;;;4.43;3.60;;;;;;;;;;8345977;28;20093;-62
2022/11/13 12:46:20;;;;;;;5.13;3.67;;;;;;;;;;8347678;28;20029;-62
2022/11/13 12:50:23;;;;;;;8.88;3.80;;;;;;;;;;8346105;28;20489;-62
2022/11/13 12:54:28;;;;;;;5.37;4.03;;;;;;;;;;8346839;28;20036;-62
2022/11/13 12:58:29;;;;;;;3.92;3.55;;;;;;;;;;8342999;28;20020;-61
2022/11/13 13:02:35;;;;;;;4.30;3.53;;;;;;;;;;8345492;28;20277;-61
2022/11/13 13:07:02;;;;;;;4.03;3.35;;;;;;;;;;8348486;28;20032;-61
2022/11/13 13:11:09;;;;;;;4.50;3.92;;;;;;;;;;8343697;28;20435;-61
2022/11/13 13:15:21;;;;;;;5.38;4.13;;;;;;;;;;8343894;28;20064;-61
2022/11/13 13:19:29;;;;;;;3.90;3.50;;;;;;;;;;8345622;28;20446;-62
2022/11/13 13:23:30;;;;;;;4.68;3.63;;;;;;;;;;8339444;28;20472;-61
2022/11/13 13:27:37;;;;;;;3.55;3.25;;;;;;;;;;8345987;28;20297;-61
2022/11/13 13:31:48;;;;;;;4.00;3.60;;;;;;;;;;8344035;28;20059;-61
2022/11/13 13:35:53;;;;;;;7.60;3.63;;;;;;;;;;8351470;28;20540;-61
2022/11/13 13:40:12;;;;;;;4.57;3.22;;;;;;;;;;8350669;28;20144;-63
2022/11/13 13:44:15;;;;;;;5.10;3.65;;;;;;;;;;8349159;28;20028;-63
2022/11/13 13:48:17;;;;;;;4.60;3.47;;;;;;;;;;8348599;28;20040;-63
2022/11/13 13:52:21;;;;;;;4.47;3.75;;;;;;;;;;8349315;28;20094;-63
2022/11/13 13:56:22;;;;;;;5.35;3.25;;;;;;;;;;8351470;28;20028;-62
2022/11/13 14:00:22;;;;;;;4.20;3.55;;;;;;;;;;8348381;28;20075;-62
2022/11/13 14:04:23;;;;;;;3.17;2.87;;;;;;;;;;8348012;28;20105;-62
2022/11/13 14:08:24;;;;;;;3.50;3.08;;;;;;;;;;8351188;28;20267;-62
2022/11/13 14:12:24;;;;;;;3.28;2.97;;;;;;;;;;8352885;28;20064;-62
2022/11/13 14:16:25;;;;;;;3.30;3.00;;;;;;;;;;8356605;28;20036;-62
2022/11/13 14:20:25;;;;;;;3.63;2.58;;;;;;;;;;8356763;28;20032;-63
2022/11/13 14:24:28;;;;;;;3.88;2.95;;;;;;;;;;8354317;28;20265;-62
2022/11/13 14:28:30;;;;;;;2.83;2.63;;;;;;;;;;8352824;28;20583;-62
2022/11/13 14:32:32;;;;;;;4.03;2.90;;;;;;;;;;8351495;28;20032;-62
2022/11/13 14:36:33;;;;;;;3.40;3.10;;;;;;;;;;8355435;28;20144;-63
2022/11/13 14:40:34;;;;;;;3.35;3.00;;;;;;;;;;8354127;28;20104;-62
2022/11/13 14:44:34;;;;;;;3.17;2.88;;;;;;;;;;8354989;28;20036;-62
2022/11/13 14:48:35;;;;;;;2.50;2.30;;;;;;;;;;8355098;28;20040;-63
2022/11/13 14:52:35;;;;;;;3.63;2.78;;;;;;;;;;8357837;28;20028;-63
2022/11/13 14:56:36;;;;;;;3.83;2.92;;;;;;;;;;8354805;28;20232;-64
2022/11/13 15:00:38;;;;;;;4.38;3.08;;;;;;;;;;8353988;28;20113;-63
2022/11/13 15:04:38;;;;;;;4.43;3.10;;;;;;;;;;8355100;28;20032;-63
2022/11/13 15:08:38;;;;;;;3.58;2.72;;;;;;;;;;8362789;28;20032;-63
2022/11/13 15:12:39;;;;;;;5.67;3.23;;;;;;;;;;8361269;28;20116;-63
2022/11/13 15:16:39;;;;;;;3.78;3.22;;;;;;;;;;8332448;28;20277;-63
2022/11/13 15:20:40;;;;;;;3.13;2.83;;;;;;;;;;8360820;28;20030;-64
2022/11/13 15:24:40;;;;;;;4.57;2.85;;;;;;;;;;8359605;28;20685;-63
2022/11/13 15:28:40;;;;;;;2.88;2.50;;;;;;;;;;8362556;28;20464;-63
2022/11/13 15:32:40;;;;;;;2.80;2.40;;;;;;;;;;8361493;28;20624;-63
2022/11/13 15:36:41;;;;;;;3.25;2.92;;;;;;;;;;8361093;28;20103;-64
2022/11/13 15:40:41;;;;;;;4.38;2.58;;;;;;;;;;8362839;28;20074;-63
2022/11/13 15:44:41;;;;;;;2.83;2.40;;;;;;;;;;8359513;28;20098;-62
2022/11/13 15:48:42;;;;;;;3.65;2.22;;;;;;;;;;8343065;28;20290;-63
2022/11/13 15:52:46;;;;;;;2.67;2.30;;;;;;;;;;8360949;28;20465;-63
2022/11/13 15:56:46;;;;;;;2.50;2.30;;;;;;;;;;8361774;28;20024;-63
2022/11/13 16:00:46;;;;;;;2.30;2.03;;;;;;;;;;8357219;28;20418;-64
2022/11/13 16:04:47;;;;;;;3.95;2.15;;;;;;;;;;8365302;28;20830;-64
2022/11/13 16:08:47;;;;;;;3.22;2.20;;;;;;;;;;8359225;28;20146;-63
2022/11/13 16:12:48;;;;;;;3.00;2.13;;;;;;;;;;8360442;28;20024;-63
2022/11/13 16:16:49;;;;;;;2.10;1.90;;;;;;;;;;8358760;28;20035;-63
2022/11/13 16:20:49;;;;;;;3.10;2.10;;;;;;;;;;8358050;28;20020;-64
2022/11/13 16:24:50;;;;;;;3.40;2.10;;;;;;;;;;8357555;28;20075;-63
2022/11/13 16:28:53;;;;;;;4.60;2.38;;;;;;;;;;8361290;28;20756;-63
2022/11/13 16:32:53;;;;;;;2.25;2.00;;;;;;;;;;8340917;28;20841;-63
2022/11/13 16:36:54;;;;;;;3.60;2.83;;;;;;;;;;8338739;28;20159;-63
2022/11/13 16:40:54;;;;;;;2.88;2.17;;;;;;;;;;8359846;28;20119;-64
2022/11/13 16:44:54;;;;;;;2.70;2.50;;;;;;;;;;8336552;28;20029;-63
2022/11/13 16:48:55;;;;;;;3.92;3.10;;;;;;;;;;8356125;28;20357;-63
2022/11/13 16:52:56;;;;;;;2.80;2.40;;;;;;;;;;8358942;28;20031;-63
2022/11/13 16:56:56;;;;;;;5.38;3.08;;;;;;;;;;8359408;28;20504;-63
2022/11/13 17:00:56;;;;;;;3.50;2.80;;;;;;;;;;8355876;28;20036;-64
2022/11/13 17:04:57;;;;;;;6.23;2.60;;;;;;;;;;8357025;28;20028;-63
2022/11/13 17:18:25;;;;;;;4.68;2.70;;;;;;;;;;8343181;28;20109;-63
2022/11/13 17:22:25;;;;;;;3.87;3.00;;;;;;;;;;8348929;28;20546;-63
2022/11/13 17:26:25;;;;;;;3.03;2.72;;;;;;;;;;8352314;28;21072;-63
2022/11/13 17:30:25;;;;;;;4.28;2.28;;;;;;;;;;8354645;28;20036;-68
2022/11/13 17:34:26;;;;;;;3.00;2.22;;;;;;;;;;8356439;28;20087;-63
2022/11/13 17:38:26;;;;;;;2.93;2.27;;;;;;;;;;8353473;28;20041;-63
2022/11/13 17:42:27;;;;;;;2.35;2.15;;;;;;;;;;8354966;28;20282;-63
2022/11/13 17:46:27;;;;;;;2.50;2.30;;;;;;;;;;8352542;28;20132;-63
2022/11/13 17:50:27;;;;;;;2.97;2.53;;;;;;;;;;8351102;28;20043;-63
2022/11/13 17:54:28;;;;;;;3.05;2.75;;;;;;;;;;8353787;28;21182;-64
2022/11/13 17:58:28;;;;;;;4.05;2.60;;;;;;;;;;8356219;28;20032;-63
2022/11/13 18:02:29;;;;;;;2.75;2.38;;;;;;;;;;8351226;28;20137;-63
2022/11/13 18:06:29;;;;;;;2.45;2.25;;;;;;;;;;8343618;28;20354;-62
2022/11/13 18:10:30;;;;;;;2.95;2.38;;;;;;;;;;8344459;28;20028;-62
2022/11/13 18:14:30;;;;;;;3.13;2.42;;;;;;;;;;8345411;28;20487;-63
2022/11/13 18:18:30;;;;;;;3.03;2.30;;;;;;;;;;8342356;28;20028;-63
2022/11/13 18:22:31;;;;;;;4.45;2.78;;;;;;;;;;8348729;28;20031;-63
2022/11/13 18:26:31;;;;;;;2.65;2.30;;;;;;;;;;8344675;28;20024;-63
2022/11/13 18:30:31;;;;;;;5.05;2.78;;;;;;;;;;8345220;28;20044;-63
2022/11/13 18:34:32;;;;;;;3.72;2.90;;;;;;;;;;8341967;28;21459;-63
2022/11/13 18:38:32;;;;;;;3.60;2.80;;;;;;;;;;8342994;28;20028;-63
2022/11/13 18:42:32;;;;;;;3.67;2.85;;;;;;;;;;8349202;28;20577;-64
2022/11/13 18:46:32;;;;;;;3.67;3.00;;;;;;;;;;8345401;28;20040;-63
2022/11/13 18:50:32;;;;;;;3.70;2.83;;;;;;;;;;8345053;28;20719;-65
2022/11/13 18:54:33;;;;;;;3.53;3.20;;;;;;;;;;8343549;28;20470;-64
2022/11/13 18:58:37;;;;;;;3.22;2.92;;;;;;;;;;8344260;28;20043;-64
2022/11/13 19:02:37;;;;;;;;;;;;;;;;;;8344501;28;20144;-63
2022/11/13 19:06:37;;;;;;;3.97;2.50;;;;;;;;;;8324679;28;19993;-63
2022/11/13 19:10:38;;;;;;;3.40;2.72;;;;;;;;;;8343429;28;20198;-63
2022/11/13 19:14:38;;;;;;;3.08;2.80;;;;;;;;;;8343344;28;20095;-63
2022/11/13 19:18:40;;;;;;;5.97;4.50;;;;;;;;;;8345171;28;20036;-63
2022/11/13 19:22:40;;;;;;;5.90;4.45;;;;;;;;;;8351831;28;20027;-63
2022/11/13 19:26:40;;;;;;;7.43;4.82;;;;;;;;;;8353774;28;20024;-63
2022/11/13 19:30:45;;;;;;;9.13;4.60;;;;;;;;;;8354421;28;20033;-66
2022/11/13 19:34:45;;;;;;;8.93;5.55;;;;;;;;;;8324527;28;20101;-63
2022/11/13 19:38:45;;;;;;;7.63;5.47;;;;;;;;;;8333920;28;20058;-63
2022/11/13 19:42:46;;;;;;;8.48;4.90;;;;;;;;;;8352286;28;20067;-63
2022/11/13 19:46:48;;;;;;;6.50;4.57;;;;;;;;;;8351513;28;20024;-66
2022/11/13 19:50:48;;;;;;;5.28;4.35;;;;;;;;;;8350413;28;20012;-63
2022/11/13 19:54:49;;;;;;;5.22;4.25;;;;;;;;;;8360269;28;20437;-63
2022/11/13 19:58:49;;;;;;;6.70;4.53;;;;;;;;;;8355916;28;20028;-64
2022/11/13 20:02:49;;;;;;;7.85;4.80;;;;;;;;;;8354017;28;20330;-64
2022/11/13 20:06:50;;;;;;;5.60;4.45;;;;;;;;;;8354246;28;20083;-63
2022/11/13 20:10:50;;;;;;;9.38;4.60;;;;;;;;;;8335995;28;20416;-63
2022/11/13 20:14:51;;;;;;;6.80;4.90;;;;;;;;;;8355029;28;20439;-63
2022/11/13 20:18:54;;;;;;;8.23;5.30;;;;;;;;;;8354891;28;20033;-63
2022/11/13 20:22:54;;;;;;;7.37;5.50;;;;;;;;;;8356912;28;20040;-64
2022/11/13 20:26:54;;;;;;;6.15;4.88;;;;;;;;;;8340251;28;20306;-64
2022/11/13 20:31:04;;;;;;;5.65;4.43;;;;;;;;;;8356611;28;20033;-63
2022/11/13 20:35:04;;;;;;;6.18;4.65;;;;;;;;;;8351523;28;20087;-63
2022/11/13 20:39:05;;;;;;;8.50;5.22;;;;;;;;;;8359428;28;20855;-63
2022/11/13 20:43:05;;;;;;;6.95;5.40;;;;;;;;;;8355869;28;20016;-63
2022/11/13 20:47:05;;;;;;;8.23;5.80;;;;;;;;;;8337509;28;20028;-63
2022/11/13 20:51:05;;;;;;;8.65;6.15;;;;;;;;;;8356818;28;20020;-64
2022/11/13 20:55:06;;;;;;;9.02;5.57;;;;;;;;;;8355540;28;20160;-63
2022/11/13 20:59:06;;;;;;;7.97;5.38;;;;;;;;;;8354018;28;20082;-63
2022/11/13 21:03:06;;;;;;;6.57;4.90;;;;;;;;;;8356364;28;20028;-63
2022/11/13 21:07:06;;;;;;;6.77;4.53;;;;;;;;;;8354739;28;20127;-63
2022/11/13 21:11:11;;;;;;;6.40;4.18;;;;;;;;;;8339959;28;20313;-63
2022/11/13 21:15:11;;;;;;;5.32;3.97;;;;;;;;;;8352984;28;20028;-64
2022/11/13 21:19:11;;;;;;;6.30;4.22;;;;;;;;;;8356729;28;20400;-63
2022/11/13 21:23:12;;;;;;;4.28;3.58;;;;;;;;;;8357166;28;20033;-63
2022/11/13 21:27:12;;;;;;;6.25;4.15;;;;;;;;;;8352103;28;20028;-64
2022/11/13 21:31:13;;;;;;;5.50;4.18;;;;;;;;;;8354821;28;20131;-63
2022/11/13 21:35:14;;;;;;;7.40;4.30;;;;;;;;;;8352731;28;20048;-63
2022/11/13 21:39:14;;;;;;;9.88;6.28;;;;;;;;;;8355048;28;20024;-64
2022/11/13 21:43:14;;;;;;;8.07;5.53;;;;;;;;;;8354912;28;20150;-64
2022/11/13 21:47:14;;;;;;;8.00;4.72;;;;;;;;;;8352822;28;20553;-64
2022/11/13 21:51:15;;;;;;;6.37;4.07;;;;;;;;;;8353484;28;20083;-63
2022/11/13 21:55:15;;;;;;;7.28;4.20;;;;;;;;;;8353112;28;20254;-63
2022/11/13 21:59:15;;;;;;;4.93;4.03;;;;;;;;;;8351292;28;20029;-63
2022/11/13 22:03:15;;;;;;;4.32;3.60;;;;;;;;;;8351721;28;20291;-63
2022/11/13 22:07:15;;;;;;;4.32;3.47;;;;;;;;;;8354640;28;20016;-62
2022/11/13 22:11:16;;;;;;;3.58;3.25;;;;;;;;;;8352949;28;20075;-63
2022/11/13 22:15:16;;;;;;;4.50;3.55;;;;;;;;;;8354222;28;20033;-63
2022/11/13 22:19:18;;;;;;;3.77;3.37;;;;;;;;;;8354682;28;20035;-63
2022/11/13 22:23:18;;;;;;;6.57;4.78;;;;;;;;;;8353286;28;20287;-63
2022/11/13 22:27:18;;;;;;;6.53;4.88;;;;;;;;;;8353782;28;20344;-65
2022/11/13 22:31:19;;;;;;;6.47;4.47;;;;;;;;;;8355195;28;20673;-62
2022/11/13 22:35:20;;;;;;;6.00;4.78;;;;;;;;;;8353577;28;20025;-62
2022/11/13 22:39:20;;;;;;;7.40;4.88;;;;;;;;;;8356386;28;20111;-63
2022/11/13 22:43:20;;;;;;;8.32;6.22;;;;;;;;;;8353316;28;20036;-63
2022/11/13 22:47:20;;;;;;;8.13;6.15;;;;;;;;;;8335940;28;20044;-63
2022/11/13 22:51:24;;;;;;;7.75;6.13;;;;;;;;;;8356039;28;20080;-63
2022/11/13 22:55:24;;;;;;;8.32;5.90;;;;;;;;;;8356824;28;20623;-64
2022/11/13 22:59:25;;;;;;;9.88;7.32;;;;;;;;;;8358789;28;20106;-63
2022/11/13 23:03:25;;;;;;;7.75;5.90;;;;;;;;;;8352670;28;20029;-63
2022/11/13 23:07:25;;;;;;;7.35;5.57;;;;;;;;;;8355206;28;20111;-63
2022/11/13 23:11:30;;;;;;;6.35;5.25;;;;;;;;;;8356263;28;20016;-63
2022/11/13 23:15:30;;;;;;;6.45;4.95;;;;;;;;;;8353615;28;20044;-64
2022/11/13 23:19:30;;;;;;;6.97;5.47;;;;;;;;;;8354027;28;20033;-63
2022/11/13 23:23:30;;;;;;;6.72;5.40;;;;;;;;;;8354869;28;20771;-63
2022/11/13 23:27:32;;;;;;;5.97;5.07;;;;;;;;;;8358321;28;20999;-63
2022/11/13 23:31:32;;;;;;;6.22;5.30;;;;;;;;;;8363880;28;20960;-63
2022/11/13 23:35:32;;;;;;;7.13;5.40;;;;;;;;;;8361213;28;20020;-63
2022/11/13 23:39:32;;;;;;;8.30;6.03;;;;;;;;;;8360578;28;20063;-64
2022/11/13 23:43:33;;;;;;;7.35;5.40;;;;;;;;;;8361694;28;21993;-64
2022/11/13 23:47:33;;;;;;;6.70;5.63;;;;;;;;;;8360486;28;20144;-64
2022/11/13 23:51:33;;;;;;;7.88;5.85;;;;;;;;;;8361282;28;20924;-64
2022/11/13 23:55:33;;;;;;;10.07;5.88;;;;;;;;;;8362705;28;20397;-63
2022/11/13 23:59:33;;;;;;;8.33;6.20;;;;;;;;;;8361720;28;20016;-64
